createdAt,value
2019-05-12T00:01:10.029Z,0.70
2019-05-12T00:06:15.014Z,0.80
2019-05-12T00:11:20.038Z,0.70
2019-05-12T00:16:25.365Z,0.60
2019-05-12T00:21:30.762Z,0.57
2019-05-12T00:26:38.171Z,0.68
2019-05-12T00:31:42.988Z,0.70
2019-05-12T00:36:48.660Z,0.70
2019-05-12T00:41:54.019Z,0.72
2019-05-12T00:46:59.081Z,0.80
2019-05-12T00:52:04.573Z,0.80
2019-05-12T00:57:10.166Z,0.80
2019-05-12T01:02:15.555Z,0.70
2019-05-12T01:07:20.985Z,0.80
2019-05-12T01:12:28.493Z,0.80
2019-05-12T01:17:33.469Z,0.87
2019-05-12T01:22:38.630Z,0.90
2019-05-12T01:27:44.291Z,0.88
2019-05-12T01:32:49.549Z,0.80
2019-05-12T01:37:54.945Z,0.90
2019-05-12T01:43:00.338Z,0.90
2019-05-12T01:48:08.352Z,1.10
2019-05-12T01:53:12.514Z,1.02
2019-05-12T01:58:19.311Z,1.10
2019-05-12T02:03:24.672Z,1.00
2019-05-12T02:08:38.236Z,1.10
2019-05-12T02:13:42.963Z,1.10
2019-05-12T02:18:49.026Z,1.10
2019-05-12T02:23:54.329Z,1.20
2019-05-12T02:29:00.056Z,1.03
2019-05-12T02:34:05.831Z,1.00
2019-05-12T02:39:14.651Z,1.20
2019-05-12T02:44:18.409Z,1.20
2019-05-12T02:49:24.478Z,1.20
2019-05-12T02:54:47.105Z,1.00
2019-05-12T02:59:39.991Z,1.27
2019-05-12T03:04:45.901Z,1.70
2019-05-12T03:09:55.025Z,1.47
2019-05-12T03:15:00.683Z,1.67
2019-05-12T03:20:06.338Z,1.50
2019-05-12T03:25:20.912Z,2.03
2019-05-12T03:30:19.853Z,2.00
2019-05-12T03:35:32.399Z,2.00
2019-05-12T03:40:37.647Z,1.83
2019-05-12T03:45:39.689Z,1.80
2019-05-12T03:50:46.164Z,2.30
2019-05-12T03:55:55.052Z,1.90
2019-05-12T04:00:59.265Z,2.35
2019-05-12T04:06:04.979Z,2.30
2019-05-12T04:11:10.277Z,2.10
2019-05-12T04:16:16.409Z,2.20
2019-05-12T04:21:24.336Z,3.10
2019-05-12T04:26:28.576Z,2.30
2019-05-12T04:31:34.897Z,2.20
2019-05-12T04:36:40.865Z,2.27
2019-05-12T04:41:46.247Z,2.10
2019-05-12T04:46:51.611Z,2.40
2019-05-12T04:51:56.902Z,2.47
2019-05-12T04:57:04.147Z,2.47
2019-05-12T05:02:08.665Z,2.67
2019-05-12T05:07:15.156Z,2.35
2019-05-12T05:12:20.239Z,2.40
2019-05-12T05:17:25.713Z,2.87
2019-05-12T05:22:33.207Z,2.70
2019-05-12T05:27:38.105Z,2.70
2019-05-12T05:32:44.417Z,2.80
2019-05-12T05:37:50.170Z,2.52
2019-05-12T05:42:55.693Z,3.83
2019-05-12T05:48:05.519Z,8.25
2019-05-12T05:53:09.167Z,3.12
2019-05-12T05:58:15.560Z,3.05
2019-05-12T06:03:27.216Z,5.53
2019-05-12T06:08:28.462Z,3.15
2019-05-12T06:13:34.566Z,2.65
2019-05-12T06:18:39.653Z,2.30
2019-05-12T06:23:45.026Z,2.67
2019-05-12T06:28:50.428Z,2.70
2019-05-12T06:33:55.766Z,2.42
2019-05-12T06:39:00.909Z,2.42
2019-05-12T06:44:09.008Z,2.70
2019-05-12T06:49:17.547Z,2.70
2019-05-12T06:54:19.962Z,2.65
2019-05-12T06:59:25.221Z,2.50
2019-05-12T07:04:30.217Z,2.62
2019-05-12T07:09:50.998Z,2.97
2019-05-12T07:14:43.827Z,3.37
2019-05-12T07:19:56.390Z,3.30
2019-05-12T07:24:55.802Z,4.08
2019-05-12T07:30:00.892Z,4.53
2019-05-12T07:35:06.401Z,4.37
2019-05-12T07:40:13.770Z,4.75
2019-05-12T07:45:22.336Z,5.10
2019-05-12T07:50:27.343Z,5.05
2019-05-12T07:55:34.186Z,5.80
2019-05-12T08:00:40.281Z,5.20
2019-05-12T08:05:45.945Z,6.70
2019-05-12T08:10:53.538Z,5.42
2019-05-12T08:15:57.838Z,6.10
2019-05-12T08:21:03.883Z,5.95
2019-05-12T08:26:12.400Z,5.80
2019-05-12T08:31:16.076Z,6.47
2019-05-12T08:36:23.460Z,6.47
2019-05-12T08:41:28.572Z,6.17
2019-05-12T08:46:34.410Z,5.75
2019-05-12T08:51:40.109Z,5.90
2019-05-12T08:56:45.402Z,5.65
2019-05-12T09:01:50.495Z,9.63
2019-05-12T09:06:59.715Z,10.05
2019-05-12T09:12:03.642Z,6.78
2019-05-12T09:17:08.751Z,6.87
2019-05-12T09:22:18.478Z,7.05
2019-05-12T09:27:21.347Z,7.42
2019-05-12T09:32:26.763Z,6.90
2019-05-12T09:37:39.050Z,7.60
2019-05-12T09:42:39.219Z,8.23
2019-05-12T09:47:44.230Z,7.72
2019-05-12T09:52:52.901Z,6.90
2019-05-12T09:57:56.935Z,7.75
2019-05-12T10:03:04.890Z,6.17
2019-05-12T10:08:10.010Z,6.27
2019-05-12T10:13:15.098Z,5.60
2019-05-12T10:18:20.441Z,5.47
2019-05-12T10:23:27.391Z,5.80
2019-05-12T10:28:32.918Z,5.20
2019-05-12T10:33:38.382Z,6.70
2019-05-12T10:38:44.205Z,5.27
2019-05-12T10:43:56.075Z,6.33
2019-05-12T10:48:56.655Z,6.08
2019-05-12T10:54:11.825Z,6.00
2019-05-12T10:59:09.239Z,6.30
2019-05-12T11:04:14.584Z,6.10
2019-05-12T11:09:21.232Z,6.12
2019-05-12T11:14:30.477Z,6.60
2019-05-12T11:19:33.903Z,6.08
2019-05-12T11:24:39.290Z,6.10
2019-05-12T11:29:49.099Z,6.20
2019-05-12T11:34:53.719Z,5.20
2019-05-12T11:39:59.197Z,4.83
2019-05-12T11:45:04.499Z,4.37
2019-05-12T11:50:10.230Z,4.80
2019-05-12T11:55:15.498Z,6.42
2019-05-12T12:00:24.179Z,4.80
2019-05-12T12:05:29.651Z,4.20
2019-05-12T12:10:39.591Z,4.50
2019-05-12T12:15:42.191Z,8.40
2019-05-12T12:20:47.770Z,4.72
2019-05-12T12:25:53.574Z,5.10
2019-05-12T12:31:01.938Z,4.70
2019-05-12T12:36:06.509Z,4.55
2019-05-12T12:41:13.192Z,4.28
2019-05-12T12:46:24.383Z,2.70
2019-05-12T12:51:30.043Z,3.10
2019-05-12T12:56:35.111Z,3.30
2019-05-12T13:01:40.495Z,3.30
2019-05-12T13:06:45.495Z,3.40
2019-05-12T13:11:50.763Z,3.80
2019-05-12T13:16:56.330Z,3.40
2019-05-12T13:22:03.595Z,5.03
2019-05-12T13:27:08.393Z,3.07
2019-05-12T13:32:13.921Z,3.30
2019-05-12T13:37:19.661Z,3.23
2019-05-12T13:42:24.862Z,3.47
2019-05-12T13:47:35.511Z,3.20
2019-05-12T13:52:36.557Z,2.98
2019-05-12T13:57:46.716Z,2.60
2019-05-12T14:02:49.151Z,3.02
2019-05-12T14:07:57.440Z,3.83
2019-05-12T14:13:03.545Z,3.47
2019-05-12T14:18:10.444Z,9.25
2019-05-12T14:23:16.099Z,2.87
2019-05-12T14:28:23.455Z,3.30
2019-05-12T14:33:29.852Z,2.77
2019-05-12T14:38:35.247Z,2.60
2019-05-12T14:43:40.836Z,2.47
2019-05-12T14:48:50.296Z,2.65
2019-05-12T14:53:53.598Z,2.80
2019-05-12T14:59:00.625Z,2.30
2019-05-12T15:04:05.527Z,2.05
2019-05-12T15:09:11.423Z,2.10
2019-05-12T15:14:18.082Z,1.85
2019-05-12T15:19:27.836Z,1.60
2019-05-12T15:24:31.124Z,1.90
2019-05-12T15:29:37.835Z,1.87
2019-05-12T15:34:44.150Z,1.80
2019-05-12T15:39:50.214Z,2.20
2019-05-12T15:44:55.579Z,2.65
2019-05-12T15:50:00.656Z,1.95
2019-05-12T15:55:06.563Z,1.42
2019-05-12T16:00:13.790Z,1.87
2019-05-12T16:05:20.237Z,2.45
2019-05-12T16:10:26.058Z,2.47
2019-05-12T16:15:31.296Z,1.82
2019-05-12T16:20:36.565Z,2.70
2019-05-12T16:25:41.980Z,1.75
2019-05-12T16:30:47.441Z,1.97
2019-05-12T16:35:54.600Z,2.52
2019-05-12T16:41:00.360Z,1.65
2019-05-12T16:46:05.968Z,1.50
2019-05-12T16:51:13.862Z,2.20
2019-05-12T16:56:19.985Z,1.45
2019-05-12T17:01:29.209Z,1.20
2019-05-12T17:06:34.964Z,1.30
2019-05-12T17:11:47.266Z,1.50
2019-05-12T17:16:46.904Z,1.77
2019-05-12T17:21:58.195Z,1.55
2019-05-12T17:27:00.171Z,1.30
2019-05-12T17:32:05.278Z,1.55
2019-05-12T17:37:10.851Z,1.50
2019-05-12T17:42:21.494Z,1.30
2019-05-12T17:47:25.814Z,1.92
2019-05-12T17:52:29.522Z,6.30
2019-05-12T17:57:34.659Z,5.70
2019-05-12T18:02:39.658Z,4.70
2019-05-12T18:07:50.509Z,4.80
2019-05-12T18:12:53.485Z,2.92
2019-05-12T18:17:58.963Z,2.73
2019-05-12T18:23:04.532Z,2.85
2019-05-12T18:28:10.127Z,1.90
2019-05-12T18:33:29.178Z,2.12
2019-05-12T18:38:26.138Z,2.70
2019-05-12T18:43:29.950Z,2.30
2019-05-12T18:48:35.619Z,2.37
2019-05-12T18:53:40.689Z,2.27
2019-05-12T18:58:46.004Z,2.55
2019-05-12T19:03:51.368Z,1.72
2019-05-12T19:08:56.644Z,1.43
2019-05-12T19:14:04.188Z,1.57
2019-05-12T19:19:09.867Z,1.70
2019-05-12T19:24:20.000Z,1.30
2019-05-12T19:29:24.317Z,1.70
2019-05-12T19:34:31.845Z,1.40
2019-05-12T19:39:36.192Z,1.22
2019-05-12T19:44:43.769Z,1.40
2019-05-12T19:49:50.722Z,1.40
2019-05-12T19:54:56.652Z,1.40
2019-05-12T20:00:04.342Z,1.67
2019-05-12T20:05:09.261Z,1.52
2019-05-12T20:10:16.639Z,1.50
2019-05-12T20:15:23.874Z,1.40
2019-05-12T20:20:36.737Z,1.43
2019-05-12T20:25:38.321Z,1.73
2019-05-12T20:30:44.178Z,1.55
2019-05-12T20:35:49.651Z,1.60
2019-05-12T20:40:54.713Z,1.57
2019-05-12T20:45:59.921Z,1.70
2019-05-12T20:51:08.734Z,1.70
2019-05-12T20:56:18.506Z,3.02
2019-05-12T21:01:20.323Z,3.72
2019-05-12T21:06:26.061Z,3.30
2019-05-12T21:11:33.700Z,2.08
2019-05-12T21:16:38.959Z,1.82
2019-05-12T21:21:44.509Z,1.62
2019-05-12T21:26:49.891Z,1.60
2019-05-12T21:31:56.274Z,1.60
2019-05-12T21:37:04.906Z,1.50
2019-05-12T21:42:08.845Z,1.50
2019-05-12T21:47:14.440Z,1.20
2019-05-12T21:52:19.858Z,1.40
2019-05-12T21:57:30.859Z,1.70
2019-05-12T22:02:34.133Z,1.62
2019-05-12T22:07:40.002Z,1.47
2019-05-12T22:12:45.456Z,1.40
2019-05-12T22:18:00.372Z,1.47
2019-05-12T22:23:10.215Z,1.40
2019-05-12T22:28:13.585Z,1.60
2019-05-12T22:33:18.913Z,2.30
2019-05-12T22:38:24.980Z,1.87
2019-05-12T22:43:31.486Z,1.77
2019-05-12T22:48:40.611Z,1.60
2019-05-12T22:53:44.521Z,1.90
2019-05-12T22:58:51.901Z,2.00
2019-05-12T23:03:56.965Z,1.80
2019-05-12T23:09:01.960Z,2.10
2019-05-12T23:14:07.124Z,1.70
2019-05-12T23:19:14.920Z,1.80
2019-05-12T23:24:19.648Z,1.97
2019-05-12T23:29:26.783Z,1.80
2019-05-12T23:34:33.831Z,1.95
2019-05-12T23:39:39.933Z,1.80
2019-05-12T23:44:45.495Z,1.70
2019-05-12T23:49:53.065Z,1.60
2019-05-12T23:54:58.054Z,1.73
